Tasinge Maersk — OUSX2 — position and weather

sailwx.info

Track history (hours):
 
Tides and Currents Weather Stations Pressure Air Temp Water Temp Dewpoint Dewpoint Depression Visibility Wind Speed Wind Dir Waves Ship Positions

Tasinge Maersk

Last reported at 2016-May-01 20:32 UTC. Time now 2016-May-05 16:07 UTC.
Position N 29°01' W 012°53'.

Length 191 m; draft 8.1 m.

Type: Cargo ship. MMSI: 220157000.

Date/timePositionNaut miles runAvg speedWind from/ knotsBaromVisibWave heightAir tempDewpointWater temp
2016-May-01 20:32N 29°01' W 012°53'1110.6
2016-May-01 19:31N 28°52' W 012°60'1110.6
2016-May-01 18:30N 28°43' W 013°07'1010.8
2016-May-01 17:33N 28°35' W 013°13'1110.9
2016-May-01 16:32N 28°25' W 013°21'2211.0
2016-May-01 14:33N 28°07' W 013°34'  
2016-Apr-28 17:33N 16°05' W 017°40'1411.4
2016-Apr-28 16:19N 15°51' W 017°40'911.7
2016-Apr-28 15:33N 15°42' W 017°40'1212.0
2016-Apr-28 14:33N 15°30' W 017°40'1212.1
2016-Apr-28 13:33N 15°18' W 017°40'5711.4
2016-Apr-28 08:33N 14°22' W 017°28'1311.2
2016-Apr-28 07:26N 14°11' W 017°21'2311.5
2016-Apr-28 05:25N 13°52' W 017°08'41 1.9
2016-Apr-27 07:16N 13°27' W 016°34'  
2016-Apr-22 17:34N 13°45' W 017°04'10 9.7
2016-Apr-22 16:34N 13°53' W 017°10'10 9.5
2016-Apr-22 15:34N 14°00' W 017°16'9 9.4
2016-Apr-22 14:34N 14°08' W 017°22'10 9.5
2016-Apr-22 13:34N 14°17' W 017°25'12 9.2
2016-Apr-22 12:14N 14°27' W 017°32'6 8.9
2016-Apr-22 11:33N 14°33' W 017°35'10 8.5
2016-Apr-22 10:25N 14°41' W 017°40'8 8.8
2016-Apr-22 09:33N 14°49' W 017°40'9 8.7
2016-Apr-22 08:34N 14°57' W 017°39'  
Track history (hours):
 
Tides and Currents Weather Stations Pressure Air Temp Water Temp Dewpoint Dewpoint Depression Visibility Wind Speed Wind Dir Waves Ship Positions

Tasinge Maersk

Last reported at 2016-May-01 20:32 UTC. Time now 2016-May-05 16:07 UTC.
Position N 29°01' W 012°53'.

Length 191 m; draft 8.1 m.

Type: Cargo ship. MMSI: 220157000.

Date/timePositionNaut miles runAvg speedWind from/ knotsBaromVisibWave heightAir tempDewpointWater temp
2016-May-01 20:32N 29°01' W 012°53'1110.6
2016-May-01 19:31N 28°52' W 012°60'1110.6
2016-May-01 18:30N 28°43' W 013°07'1010.8
2016-May-01 17:33N 28°35' W 013°13'1110.9
2016-May-01 16:32N 28°25' W 013°21'2211.0
2016-May-01 14:33N 28°07' W 013°34'  
2016-Apr-28 17:33N 16°05' W 017°40'1411.4
2016-Apr-28 16:19N 15°51' W 017°40'911.7
2016-Apr-28 15:33N 15°42' W 017°40'1212.0
2016-Apr-28 14:33N 15°30' W 017°40'1212.1
2016-Apr-28 13:33N 15°18' W 017°40'5711.4
2016-Apr-28 08:33N 14°22' W 017°28'1311.2
2016-Apr-28 07:26N 14°11' W 017°21'2311.5
2016-Apr-28 05:25N 13°52' W 017°08'41 1.9
2016-Apr-27 07:16N 13°27' W 016°34'  
2016-Apr-22 17:34N 13°45' W 017°04'10 9.7
2016-Apr-22 16:34N 13°53' W 017°10'10 9.5
2016-Apr-22 15:34N 14°00' W 017°16'9 9.4
2016-Apr-22 14:34N 14°08' W 017°22'10 9.5
2016-Apr-22 13:34N 14°17' W 017°25'12 9.2
2016-Apr-22 12:14N 14°27' W 017°32'6 8.9
2016-Apr-22 11:33N 14°33' W 017°35'10 8.5
2016-Apr-22 10:25N 14°41' W 017°40'8 8.8
2016-Apr-22 09:33N 14°49' W 017°40'9 8.7
2016-Apr-22 08:34N 14°57' W 017°39'  

Dump ship's entire track history